createdAt,value
2022-09-07T00:03:38.363Z,101280.28
2022-09-07T00:08:43.795Z,101281.80
2022-09-07T00:13:49.220Z,101279.41
2022-09-07T00:18:55.579Z,101272.96
2022-09-07T00:23:58.450Z,101266.02
2022-09-07T00:29:03.017Z,101265.49
2022-09-07T00:34:06.487Z,101257.95
2022-09-07T00:39:09.345Z,101251.98
2022-09-07T00:44:43.357Z,101259.17
2022-09-07T00:49:49.838Z,101260.61
2022-09-07T00:54:56.934Z,101255.96
2022-09-07T00:59:59.695Z,101255.65
2022-09-07T01:05:11.699Z,101262.98
2022-09-07T01:10:14.506Z,101256.69
2022-09-07T01:15:17.487Z,101255.28
2022-09-07T01:20:54.670Z,101259.64
2022-09-07T01:26:18.947Z,101262.80
2022-09-07T01:32:01.699Z,101258.88
2022-09-07T01:37:23.949Z,101258.75
2022-09-07T01:42:32.009Z,101251.93
2022-09-07T01:47:39.679Z,101254.34
2022-09-07T01:53:02.456Z,101251.39
2022-09-07T01:58:26.669Z,101251.11
2022-09-07T02:04:10.666Z,101251.86
2022-09-07T02:09:45.545Z,101253.05
2022-09-07T02:14:52.892Z,101252.36
2022-09-07T02:20:01.531Z,101248.30
2022-09-07T02:25:05.241Z,101241.53
2022-09-07T02:30:09.287Z,101242.08
2022-09-07T02:35:12.177Z,101236.91
2022-09-07T02:40:15.024Z,101239.36
2022-09-07T02:45:17.909Z,101234.13
2022-09-07T02:50:56.577Z,101234.06
2022-09-07T02:56:59.221Z,101227.59
2022-09-07T03:02:10.382Z,101223.27
2022-09-07T03:07:36.050Z,101224.11
2022-09-07T03:12:41.191Z,101223.73
2022-09-07T03:17:44.021Z,101221.64
2022-09-07T03:22:47.992Z,101217.72
2022-09-07T03:27:50.903Z,101217.81
2022-09-07T03:32:53.704Z,101215.35
2022-09-07T03:37:56.492Z,101219.39
2022-09-07T03:42:59.381Z,101221.47
2022-09-07T03:48:02.481Z,101225.27
2022-09-07T03:53:05.283Z,101224.30
2022-09-07T03:58:08.097Z,101222.30
2022-09-07T04:03:10.888Z,101224.35
2022-09-07T04:08:14.653Z,101224.06
2022-09-07T04:13:17.469Z,101223.08
2022-09-07T04:18:20.406Z,101225.53
2022-09-07T04:23:23.279Z,101229.02
2022-09-07T04:28:26.106Z,101231.22
2022-09-07T04:33:32.112Z,101231.15
2022-09-07T04:38:35.035Z,101229.58
2022-09-07T04:43:38.828Z,101232.21
2022-09-07T04:48:41.623Z,101229.88
2022-09-07T04:53:46.278Z,101225.14
2022-09-07T04:58:49.249Z,101230.05
2022-09-07T05:03:52.332Z,101234.66
2022-09-07T05:08:55.290Z,101233.67
2022-09-07T05:14:00.039Z,101234.74
2022-09-07T05:19:04.941Z,101241.98
2022-09-07T05:24:07.717Z,101243.78
2022-09-07T05:34:33.430Z,101241.41
2022-09-07T05:39:36.688Z,101237.77
2022-09-07T05:49:45.301Z,101238.20
2022-09-07T05:54:48.154Z,101233.77
2022-09-07T05:59:50.992Z,101227.91
2022-09-07T06:04:53.843Z,101231.41
2022-09-07T06:15:19.473Z,101222.13
2022-09-07T06:20:22.381Z,101219.29
2022-09-07T06:25:25.239Z,101226.10
2022-09-07T06:30:28.264Z,101223.02
2022-09-07T06:35:31.033Z,101213.13
2022-09-07T06:40:34.680Z,101205.17
2022-09-07T06:45:37.479Z,101203.06
2022-09-07T06:50:40.269Z,101207.71
2022-09-07T06:55:44.902Z,101195.64
2022-09-07T07:00:47.944Z,101188.61
2022-09-07T07:05:55.392Z,101197.20
2022-09-07T07:11:03.065Z,101195.64
2022-09-07T07:16:10.414Z,101193.53
2022-09-07T07:21:15.038Z,101192.98
2022-09-07T07:26:20.652Z,101200.81
2022-09-07T07:31:25.362Z,101200.80
2022-09-07T07:36:28.315Z,101219.04
2022-09-07T07:46:54.854Z,101223.63
2022-09-07T07:57:21.098Z,101216.45
2022-09-07T08:02:23.996Z,101216.80
2022-09-07T08:07:26.760Z,101215.52
2022-09-07T08:12:31.335Z,101206.99
2022-09-07T08:17:35.062Z,101198.84
2022-09-07T08:22:37.720Z,101189.58
2022-09-07T08:27:40.468Z,101189.48
2022-09-07T08:32:43.329Z,101187.27
2022-09-07T08:37:46.153Z,101179.39
2022-09-07T08:43:36.063Z,101167.69
2022-09-07T08:48:38.707Z,101161.66
2022-09-07T08:53:46.280Z,101166.13
2022-09-07T08:58:51.227Z,101159.83
2022-09-07T09:09:59.444Z,101147.05
2022-09-07T09:15:22.313Z,101151.70
2022-09-07T09:20:37.311Z,101142.27
2022-09-07T09:25:45.907Z,101132.27
2022-09-07T09:30:48.860Z,101117.91
2022-09-07T09:36:00.041Z,101126.05
2022-09-07T09:41:14.860Z,101115.40
2022-09-07T09:46:33.594Z,101112.28
2022-09-07T09:57:05.010Z,101108.83
2022-09-07T10:07:56.878Z,101101.20
2022-09-07T10:12:59.616Z,101098.48
2022-09-07T10:18:06.171Z,101091.14
2022-09-07T10:23:20.606Z,101082.21
2022-09-07T10:28:24.832Z,101083.72
2022-09-07T10:34:25.632Z,101081.97
2022-09-07T10:39:17.787Z,101075.65
2022-09-07T10:44:39.200Z,101062.24
2022-09-07T10:55:28.049Z,101059.73
2022-09-07T11:00:39.556Z,101051.16
2022-09-07T11:05:48.390Z,101054.17
2022-09-07T11:11:02.703Z,101052.33
2022-09-07T11:16:08.760Z,101050.29
2022-09-07T11:21:56.073Z,101055.67
2022-09-07T11:26:53.494Z,101053.70
2022-09-07T11:32:00.417Z,101039.86
2022-09-07T11:37:07.178Z,101040.70
2022-09-07T11:42:50.087Z,101031.78
2022-09-07T11:48:19.532Z,101024.02
2022-09-07T11:53:26.834Z,101014.38
2022-09-07T11:58:35.733Z,101009.59
2022-09-07T12:04:02.217Z,101006.72
2022-09-07T12:09:11.294Z,101001.27
2022-09-07T12:14:25.616Z,100998.04
2022-09-07T12:19:28.309Z,100997.98
2022-09-07T12:24:51.501Z,101001.37
2022-09-07T12:29:56.903Z,100995.98
2022-09-07T12:34:59.571Z,100995.58
2022-09-07T12:40:45.928Z,100980.33
2022-09-07T12:45:51.470Z,100977.69
2022-09-07T13:08:49.468Z,100955.25
2022-09-07T13:14:16.166Z,100950.73
2022-09-07T13:19:47.097Z,100946.08
2022-09-07T13:24:52.712Z,100940.50
2022-09-07T13:30:23.131Z,100935.23
2022-09-07T13:35:26.277Z,100925.55
2022-09-07T13:40:37.761Z,100913.02
2022-09-07T13:45:49.594Z,100910.31
2022-09-07T13:51:32.022Z,100910.08
2022-09-07T13:56:43.563Z,100915.23
2022-09-07T14:01:47.369Z,100916.34
2022-09-07T14:06:50.390Z,100916.23
2022-09-07T14:11:54.420Z,100907.98
2022-09-07T14:17:08.478Z,100903.91
2022-09-07T14:22:41.878Z,100894.41
2022-09-07T14:27:46.687Z,100888.42
2022-09-07T14:32:54.585Z,100889.44
2022-09-07T14:38:06.165Z,100882.95
2022-09-07T14:43:28.483Z,100876.11
2022-09-07T14:48:32.538Z,100874.81
2022-09-07T14:53:38.112Z,100861.71
2022-09-07T14:58:40.827Z,100857.52
2022-09-07T15:03:46.610Z,100860.00
2022-09-07T15:08:49.282Z,100853.67
2022-09-07T15:14:01.894Z,100846.29
2022-09-07T15:19:16.594Z,100836.31
2022-09-07T15:24:19.232Z,100832.23
2022-09-07T15:29:22.340Z,100837.24
2022-09-07T15:34:25.907Z,100838.46
2022-09-07T15:39:30.152Z,100837.41
2022-09-07T15:44:33.244Z,100839.47
2022-09-07T15:49:36.146Z,100846.45
2022-09-07T15:54:39.822Z,100846.58
2022-09-07T15:59:42.814Z,100845.44
2022-09-07T16:04:45.649Z,100848.04
2022-09-07T16:09:48.897Z,100847.13
2022-09-07T16:14:56.388Z,100840.89
2022-09-07T16:20:02.111Z,100841.83
2022-09-07T16:25:05.723Z,100838.11
2022-09-07T16:30:09.784Z,100830.70
2022-09-07T16:35:12.414Z,100825.41
2022-09-07T16:40:15.336Z,100831.48
2022-09-07T16:50:56.591Z,100825.71
2022-09-07T16:56:06.821Z,100824.27
2022-09-07T17:01:15.004Z,100827.89
2022-09-07T17:06:20.429Z,100834.85
2022-09-07T17:11:26.691Z,100827.70
2022-09-07T17:16:32.195Z,100828.30
2022-09-07T17:21:37.707Z,100833.15
2022-09-07T17:26:42.293Z,100833.45
2022-09-07T17:37:09.224Z,100839.46
2022-09-07T17:42:12.169Z,100844.66
2022-09-07T17:47:14.884Z,100847.80
2022-09-07T17:52:17.562Z,100854.42
2022-09-07T17:57:20.226Z,100863.06
2022-09-07T18:02:23.094Z,100864.11
2022-09-07T18:07:25.877Z,100860.80
2022-09-07T18:12:28.562Z,100864.46
2022-09-07T18:17:31.404Z,100861.76
2022-09-07T18:22:34.583Z,100859.23
2022-09-07T18:27:39.476Z,100862.63
2022-09-07T18:32:42.355Z,100867.88
2022-09-07T18:37:45.029Z,100864.10
2022-09-07T18:42:48.245Z,100862.23
2022-09-07T18:47:50.935Z,100860.10
2022-09-07T18:52:53.935Z,100863.73
2022-09-07T18:57:57.676Z,100866.34
2022-09-07T19:03:00.461Z,100862.83
2022-09-07T19:08:04.410Z,100866.55
2022-09-07T19:13:07.076Z,100864.63
2022-09-07T19:18:10.614Z,100861.38
2022-09-07T19:23:13.461Z,100857.36
2022-09-07T19:28:16.444Z,100854.89
2022-09-07T19:33:19.190Z,100853.89
2022-09-07T19:38:21.910Z,100849.18
2022-09-07T19:43:24.730Z,100858.16
2022-09-07T19:48:27.592Z,100858.66
2022-09-07T19:53:34.904Z,100862.96
2022-09-07T19:58:39.966Z,100868.27
2022-09-07T20:03:43.159Z,100865.16
2022-09-07T20:08:46.059Z,100870.16
2022-09-07T20:13:49.235Z,100870.04
2022-09-07T20:18:51.955Z,100869.56
2022-09-07T20:23:54.647Z,100870.41
2022-09-07T20:29:16.437Z,100866.92
2022-09-07T20:34:20.148Z,100869.21
2022-09-07T20:39:23.787Z,100869.89
2022-09-07T20:44:27.052Z,100865.45
2022-09-07T20:49:30.225Z,100862.05
2022-09-07T20:54:33.898Z,100860.70
2022-09-07T20:59:36.613Z,100865.90
2022-09-07T21:04:39.312Z,100867.46
2022-09-07T21:09:42.039Z,100864.83
2022-09-07T21:14:46.106Z,100864.77
2022-09-07T21:19:48.846Z,100871.86
2022-09-07T21:24:51.460Z,100876.02
2022-09-07T21:29:54.108Z,100878.13
2022-09-07T21:34:56.851Z,100879.34
2022-09-07T21:39:59.554Z,100879.50
2022-09-07T21:45:02.403Z,100886.02
2022-09-07T21:50:05.784Z,100884.21
2022-09-07T21:55:08.757Z,100878.31
2022-09-07T22:00:12.268Z,100891.33
2022-09-07T22:05:15.461Z,100883.48
2022-09-07T22:10:18.129Z,100877.48
2022-09-07T22:15:20.778Z,100875.29
2022-09-07T22:20:23.405Z,100871.08
2022-09-07T22:25:26.514Z,100865.34
2022-09-07T22:30:29.162Z,100869.11
2022-09-07T22:35:31.849Z,100864.48
2022-09-07T22:40:34.568Z,100856.38
2022-09-07T22:45:37.340Z,100859.73
2022-09-07T22:50:40.014Z,100863.38
2022-09-07T22:55:42.794Z,100858.46
2022-09-07T23:00:46.921Z,100859.11
2022-09-07T23:05:49.638Z,100857.70
2022-09-07T23:10:53.048Z,100862.80
2022-09-07T23:15:55.804Z,100865.95
2022-09-07T23:21:00.551Z,100855.62
2022-09-07T23:26:03.855Z,100858.23
2022-09-07T23:31:10.306Z,100863.98
2022-09-07T23:36:13.546Z,100860.91
2022-09-07T23:41:19.592Z,100851.14
2022-09-07T23:46:22.591Z,100844.13
2022-09-07T23:51:25.452Z,100844.24
2022-09-07T23:56:28.762Z,100845.91
